createdAt,value
2017-11-08T00:01:38.828Z,7.00
2017-11-08T00:04:07.069Z,7.00
2017-11-08T00:06:34.544Z,7.00
2017-11-08T00:09:02.065Z,7.00
2017-11-08T00:11:30.325Z,7.10
2017-11-08T00:13:58.587Z,7.10
2017-11-08T00:16:26.849Z,7.10
2017-11-08T00:18:58.041Z,7.10
2017-11-08T00:21:31.976Z,7.10
2017-11-08T00:24:00.225Z,7.10
2017-11-08T00:26:28.453Z,7.10
2017-11-08T00:28:55.921Z,7.10
2017-11-08T00:31:23.474Z,7.10
2017-11-08T00:33:51.717Z,7.10
2017-11-08T00:36:19.280Z,7.10
2017-11-08T00:38:47.545Z,7.10
2017-11-08T00:41:15.776Z,7.10
2017-11-08T00:43:43.232Z,7.10
2017-11-08T00:46:11.493Z,7.20
2017-11-08T00:48:39.761Z,7.20
2017-11-08T00:51:07.985Z,7.20
2017-11-08T00:53:35.565Z,7.20
2017-11-08T00:56:03.791Z,7.20
2017-11-08T00:58:31.253Z,7.20
2017-11-08T01:00:59.724Z,7.20
2017-11-08T01:03:27.957Z,7.20
2017-11-08T01:05:55.424Z,7.20
2017-11-08T01:08:22.968Z,7.20
2017-11-08T01:10:51.242Z,7.20
2017-11-08T01:13:19.461Z,7.30
2017-11-08T01:15:46.919Z,7.20
2017-11-08T01:18:14.408Z,7.30
2017-11-08T01:20:41.917Z,7.30
2017-11-08T01:23:10.141Z,7.30
2017-11-08T01:25:37.624Z,7.30
2017-11-08T01:28:05.881Z,7.40
2017-11-08T01:30:33.422Z,7.30
2017-11-08T01:33:01.665Z,7.40
2017-11-08T01:35:29.132Z,7.40
2017-11-08T01:37:57.358Z,7.40
2017-11-08T01:40:24.929Z,7.40
2017-11-08T01:42:53.148Z,7.50
2017-11-08T01:45:20.629Z,7.50
2017-11-08T01:47:48.895Z,7.50
2017-11-08T01:50:17.124Z,7.40
2017-11-08T01:52:44.692Z,7.50
2017-11-08T01:55:12.953Z,7.50
2017-11-08T01:57:41.279Z,7.50
2017-11-08T02:00:08.763Z,7.50
2017-11-08T02:02:36.981Z,7.50
2017-11-08T02:05:04.464Z,7.50
2017-11-08T02:07:32.693Z,7.50
2017-11-08T02:10:00.161Z,7.50
2017-11-08T02:12:28.625Z,7.50
2017-11-08T02:14:56.881Z,7.50
2017-11-08T02:17:24.429Z,7.50
2017-11-08T02:19:52.688Z,7.50
2017-11-08T02:22:20.913Z,7.60
2017-11-08T02:24:48.388Z,7.50
2017-11-08T02:27:17.429Z,7.60
2017-11-08T02:29:44.897Z,7.60
2017-11-08T02:32:14.950Z,7.60
2017-11-08T02:34:42.428Z,7.60
2017-11-08T02:37:10.689Z,7.60
2017-11-08T02:39:38.944Z,7.60
2017-11-08T02:42:07.177Z,7.60
2017-11-08T02:44:34.701Z,7.60
2017-11-08T02:47:02.173Z,7.50
2017-11-08T02:49:32.612Z,7.60
2017-11-08T02:52:00.835Z,7.60
2017-11-08T02:54:28.412Z,7.60
2017-11-08T02:56:55.864Z,7.70
2017-11-08T02:59:23.345Z,7.70
2017-11-08T03:01:51.568Z,7.70
2017-11-08T03:04:21.868Z,7.70
2017-11-08T03:06:49.446Z,7.70
2017-11-08T03:09:17.672Z,7.70
2017-11-08T03:11:45.133Z,7.70
2017-11-08T03:14:12.626Z,7.70
2017-11-08T03:16:40.233Z,7.70
2017-11-08T03:19:08.492Z,7.70
2017-11-08T03:21:36.752Z,7.70
2017-11-08T03:24:04.215Z,7.70
2017-11-08T03:26:31.777Z,7.70
2017-11-08T03:29:00.133Z,7.70
2017-11-08T03:31:27.673Z,7.70
2017-11-08T03:33:55.192Z,7.70
2017-11-08T03:36:23.438Z,7.70
2017-11-08T03:38:50.901Z,7.70
2017-11-08T03:41:19.152Z,7.70
2017-11-08T03:43:47.406Z,7.70
2017-11-08T03:46:14.956Z,7.70
2017-11-08T03:48:43.181Z,7.70
2017-11-08T03:51:10.862Z,7.70
2017-11-08T03:53:39.089Z,7.80
2017-11-08T03:56:06.561Z,7.70
2017-11-08T03:58:34.840Z,7.70
2017-11-08T04:01:03.189Z,7.70
2017-11-08T04:03:31.447Z,7.80
2017-11-08T04:05:59.713Z,7.80
2017-11-08T04:08:28.068Z,7.80
2017-11-08T04:10:56.333Z,7.80
2017-11-08T04:13:24.564Z,7.70
2017-11-08T04:15:52.137Z,7.70
2017-11-08T04:18:20.361Z,7.70
2017-11-08T04:20:47.941Z,7.70
2017-11-08T04:23:16.165Z,7.70
2017-11-08T04:25:43.626Z,7.70
2017-11-08T04:28:11.288Z,7.70
2017-11-08T04:30:39.509Z,7.70
2017-11-08T04:33:06.969Z,7.70
2017-11-08T04:35:34.470Z,7.70
2017-11-08T04:38:01.929Z,7.70
2017-11-08T04:40:29.393Z,7.70
2017-11-08T04:42:56.958Z,7.80
2017-11-08T04:45:25.196Z,7.80
2017-11-08T04:47:53.472Z,7.80
2017-11-08T04:50:21.120Z,7.80
2017-11-08T04:52:49.345Z,7.80
2017-11-08T04:55:16.808Z,7.80
2017-11-08T04:57:44.285Z,7.80
2017-11-08T05:00:11.809Z,7.80
2017-11-08T05:02:40.069Z,7.90
2017-11-08T05:05:08.324Z,7.90
2017-11-08T05:07:36.589Z,7.80
2017-11-08T05:10:04.084Z,7.80
2017-11-08T05:12:32.313Z,7.80
2017-11-08T05:14:59.797Z,7.80
2017-11-08T05:17:28.161Z,7.80
2017-11-08T05:19:56.385Z,7.80
2017-11-08T05:22:23.861Z,7.80
2017-11-08T05:24:52.096Z,7.80
2017-11-08T05:27:19.673Z,7.80
2017-11-08T05:29:47.901Z,7.80
2017-11-08T05:32:15.370Z,7.80
2017-11-08T05:34:43.629Z,7.80
2017-11-08T05:37:11.867Z,7.80
2017-11-08T05:39:39.428Z,7.80
2017-11-08T05:42:07.677Z,7.70
2017-11-08T05:44:35.146Z,7.70
2017-11-08T05:47:03.373Z,7.70
2017-11-08T05:49:30.845Z,7.70
2017-11-08T05:51:59.073Z,7.80
2017-11-08T05:54:26.533Z,7.70
2017-11-08T05:56:54.797Z,7.80
2017-11-08T05:59:23.053Z,7.70
2017-11-08T06:01:51.313Z,7.80
2017-11-08T06:04:19.541Z,7.70
2017-11-08T06:06:47.115Z,7.80
2017-11-08T06:09:15.354Z,7.80
2017-11-08T06:11:42.813Z,7.80
2017-11-08T06:14:10.297Z,7.80
2017-11-08T06:16:37.749Z,7.90
2017-11-08T06:19:05.257Z,7.90
2017-11-08T06:21:33.510Z,7.90
2017-11-08T06:24:01.768Z,7.90
2017-11-08T06:26:29.988Z,7.90
2017-11-08T06:28:57.464Z,7.90
2017-11-08T06:31:25.729Z,7.90
2017-11-08T06:33:53.960Z,7.90
2017-11-08T06:36:21.529Z,7.90
2017-11-08T06:38:49.792Z,7.90
2017-11-08T06:41:18.057Z,7.90
2017-11-08T06:43:46.413Z,7.90
2017-11-08T06:46:14.643Z,7.90
2017-11-08T06:48:42.114Z,7.90
2017-11-08T06:51:12.261Z,8.00
2017-11-08T06:53:42.563Z,8.00
2017-11-08T06:56:10.065Z,8.00
2017-11-08T06:58:38.324Z,8.10
2017-11-08T07:01:06.579Z,8.10
2017-11-08T07:03:34.241Z,8.10
2017-11-08T07:06:02.502Z,8.10
2017-11-08T07:08:30.752Z,8.10
2017-11-08T07:10:58.981Z,8.10
2017-11-08T07:13:26.473Z,8.10
2017-11-08T07:15:54.821Z,8.20
2017-11-08T07:18:23.044Z,8.20
2017-11-08T07:20:50.517Z,8.20
2017-11-08T07:23:18.767Z,8.20
2017-11-08T07:25:46.326Z,8.20
2017-11-08T07:28:14.588Z,8.30
2017-11-08T07:30:42.949Z,8.40
2017-11-08T07:33:11.206Z,8.40
2017-11-08T07:35:39.429Z,8.40
2017-11-08T07:38:06.904Z,8.40
2017-11-08T07:40:34.370Z,8.40
2017-11-08T07:43:02.724Z,8.40
2017-11-08T07:45:30.948Z,8.40
2017-11-08T07:47:58.514Z,8.40
2017-11-08T07:50:26.756Z,8.40
2017-11-08T07:52:54.324Z,8.40
2017-11-08T07:55:22.546Z,8.40
2017-11-08T07:57:50.026Z,8.40
2017-11-08T08:00:18.281Z,8.50
2017-11-08T08:02:46.537Z,8.50
2017-11-08T08:05:14.804Z,8.50
2017-11-08T08:07:43.041Z,8.50
2017-11-08T08:10:10.607Z,8.50
2017-11-08T08:12:38.832Z,8.60
2017-11-08T08:15:06.296Z,8.60
2017-11-08T08:17:33.764Z,8.50
2017-11-08T08:20:01.239Z,8.60
2017-11-08T08:22:28.734Z,8.50
2017-11-08T08:24:58.836Z,8.60
2017-11-08T08:27:27.060Z,8.60
2017-11-08T08:29:54.525Z,8.60
2017-11-08T08:32:22.084Z,8.60
2017-11-08T08:34:50.312Z,8.60
2017-11-08T08:37:17.901Z,8.60
2017-11-08T08:39:45.360Z,8.60
2017-11-08T08:42:12.876Z,8.70
2017-11-08T08:44:41.123Z,8.80
2017-11-08T08:47:08.585Z,8.70
2017-11-08T08:49:36.052Z,8.70
2017-11-08T08:52:03.557Z,8.70
2017-11-08T08:54:31.822Z,8.70
2017-11-08T08:57:00.073Z,8.70
2017-11-08T08:59:28.337Z,8.80
2017-11-08T09:01:56.560Z,8.70
2017-11-08T09:04:24.040Z,8.70
2017-11-08T09:06:52.300Z,8.70
2017-11-08T09:09:20.561Z,8.80
2017-11-08T09:11:48.781Z,8.80
2017-11-08T09:14:16.248Z,8.80
2017-11-08T09:16:43.801Z,8.90
2017-11-08T09:19:12.028Z,8.80
2017-11-08T09:21:39.505Z,8.80
2017-11-08T09:24:07.864Z,8.90
2017-11-08T09:26:36.089Z,8.90
2017-11-08T09:29:03.549Z,8.90
2017-11-08T09:31:37.153Z,8.90
2017-11-08T09:34:05.387Z,9.00
2017-11-08T09:36:34.699Z,9.00
2017-11-08T09:39:03.054Z,9.10
2017-11-08T09:41:31.321Z,9.10
2017-11-08T09:43:59.549Z,9.20
2017-11-08T09:46:27.220Z,9.20
2017-11-08T09:48:55.454Z,9.30
2017-11-08T09:51:22.923Z,9.30
2017-11-08T09:53:50.405Z,9.30
2017-11-08T09:56:18.709Z,9.40
2017-11-08T09:58:46.160Z,9.40
2017-11-08T10:01:16.320Z,9.40
2017-11-08T10:03:43.816Z,9.40
2017-11-08T10:06:12.108Z,9.50
2017-11-08T10:08:41.275Z,9.50
2017-11-08T10:11:12.755Z,9.50
2017-11-08T10:13:40.241Z,9.50
2017-11-08T10:16:08.484Z,9.50
2017-11-08T10:18:35.948Z,9.50
2017-11-08T10:21:03.454Z,9.50
2017-11-08T10:23:30.893Z,9.50
2017-11-08T10:25:59.152Z,9.60
2017-11-08T10:28:26.808Z,9.60
2017-11-08T10:30:54.372Z,9.70
2017-11-08T10:33:22.633Z,9.80
2017-11-08T10:35:50.870Z,10.00
2017-11-08T10:38:18.431Z,9.90
2017-11-08T10:40:45.893Z,10.00
2017-11-08T10:43:13.386Z,10.10
2017-11-08T10:45:41.757Z,10.20
2017-11-08T10:48:10.017Z,10.30
2017-11-08T10:50:38.252Z,10.30
2017-11-08T10:53:05.817Z,10.30
2017-11-08T10:55:34.078Z,10.40
2017-11-08T10:58:02.317Z,10.40
2017-11-08T11:00:32.613Z,10.30
2017-11-08T11:03:00.076Z,10.40
2017-11-08T11:05:27.638Z,10.40
2017-11-08T11:07:55.890Z,10.40
2017-11-08T11:10:24.250Z,10.40
2017-11-08T11:12:52.515Z,10.50
2017-11-08T11:15:20.744Z,10.50
2017-11-08T11:17:48.314Z,10.50
2017-11-08T11:20:18.518Z,10.50
2017-11-08T11:22:46.780Z,10.50
2017-11-08T11:25:16.994Z,10.50
2017-11-08T11:27:45.249Z,10.50
2017-11-08T11:30:13.522Z,10.50
2017-11-08T11:32:43.726Z,10.50
2017-11-08T11:35:11.996Z,10.50
2017-11-08T11:37:45.033Z,10.50
2017-11-08T11:40:12.594Z,10.50
2017-11-08T11:42:40.858Z,10.50
2017-11-08T11:45:09.115Z,10.50
2017-11-08T11:47:37.340Z,10.60
2017-11-08T11:50:04.806Z,10.60
2017-11-08T11:52:32.366Z,10.60
2017-11-08T11:55:00.633Z,10.70
2017-11-08T11:57:28.861Z,10.70
2017-11-08T11:59:57.860Z,10.70
2017-11-08T12:02:26.093Z,10.80
2017-11-08T12:04:53.557Z,10.80
2017-11-08T12:07:21.030Z,10.70
2017-11-08T12:09:48.554Z,10.80
2017-11-08T12:12:16.814Z,11.00
2017-11-08T12:14:45.174Z,11.00
2017-11-08T12:17:13.438Z,11.10
2017-11-08T12:19:41.697Z,11.10
2017-11-08T12:22:09.938Z,11.10
2017-11-08T12:24:37.410Z,11.10
2017-11-08T12:27:05.666Z,11.20
2017-11-08T12:29:36.829Z,11.30
2017-11-08T12:32:04.297Z,11.30
2017-11-08T12:34:31.874Z,11.20
2017-11-08T12:37:00.238Z,11.30
2017-11-08T12:39:28.605Z,11.40
2017-11-08T12:42:14.609Z,11.50
2017-11-08T12:44:47.717Z,11.50
2017-11-08T12:47:15.293Z,11.60
2017-11-08T12:49:43.553Z,11.60
2017-11-08T12:52:11.801Z,11.60
2017-11-08T12:54:40.066Z,11.60
2017-11-08T12:57:08.338Z,11.70
2017-11-08T12:59:35.825Z,11.60
2017-11-08T13:02:03.409Z,11.70
2017-11-08T13:04:30.890Z,11.70
2017-11-08T13:06:58.371Z,11.70
2017-11-08T13:09:25.869Z,11.70
2017-11-08T13:11:53.341Z,11.60
2017-11-08T13:14:21.295Z,11.60
2017-11-08T13:16:48.772Z,11.40
2017-11-08T13:19:16.252Z,11.40
2017-11-08T13:21:43.770Z,11.30
2017-11-08T13:24:12.029Z,11.30
2017-11-08T13:26:40.268Z,11.30
2017-11-08T13:29:07.842Z,11.40
2017-11-08T13:31:36.086Z,11.50
2017-11-08T13:34:03.656Z,11.40
2017-11-08T13:36:31.133Z,11.60
2017-11-08T13:38:58.627Z,11.80
2017-11-08T13:41:27.094Z,11.90
2017-11-08T13:43:55.325Z,11.90
2017-11-08T13:46:22.890Z,11.90
2017-11-08T13:48:51.141Z,11.90
2017-11-08T13:51:18.617Z,11.90
2017-11-08T13:53:46.677Z,11.70
2017-11-08T13:56:14.165Z,11.70
2017-11-08T13:58:41.702Z,11.60
2017-11-08T14:01:09.183Z,11.60
2017-11-08T14:03:37.441Z,11.50
2017-11-08T14:06:05.677Z,11.30
2017-11-08T14:08:33.265Z,11.30
2017-11-08T14:11:01.522Z,11.30
2017-11-08T14:13:29.752Z,11.20
2017-11-08T14:15:57.226Z,11.20
2017-11-08T14:18:24.853Z,11.10
2017-11-08T14:20:53.089Z,11.00
2017-11-08T14:23:20.557Z,10.90
2017-11-08T14:25:48.913Z,10.90
2017-11-08T14:28:17.184Z,10.90
2017-11-08T14:30:45.418Z,10.90
2017-11-08T14:33:12.902Z,10.90
2017-11-08T14:35:43.298Z,11.00
2017-11-08T14:38:11.658Z,11.00
2017-11-08T14:40:39.901Z,11.00
2017-11-08T14:43:07.458Z,11.00
2017-11-08T14:45:35.737Z,10.80
2017-11-08T14:48:03.286Z,10.80
2017-11-08T14:50:30.750Z,10.70
2017-11-08T14:53:03.885Z,10.70
2017-11-08T14:55:32.149Z,10.70
2017-11-08T14:58:00.457Z,10.60
2017-11-08T15:00:31.017Z,10.70
2017-11-08T15:02:59.330Z,10.60
2017-11-08T15:05:26.818Z,10.50
2017-11-08T15:07:55.066Z,10.50
2017-11-08T15:10:22.536Z,10.50
2017-11-08T15:12:50.117Z,10.50
2017-11-08T15:15:19.577Z,10.60
2017-11-08T15:17:47.097Z,10.50
2017-11-08T15:20:20.981Z,10.50
2017-11-08T15:22:48.450Z,10.50
2017-11-08T15:25:15.918Z,10.50
2017-11-08T15:27:43.406Z,10.50
2017-11-08T15:30:16.650Z,10.40
2017-11-08T15:32:46.989Z,10.40
2017-11-08T15:35:14.462Z,10.30
2017-11-08T15:37:41.965Z,10.40
2017-11-08T15:40:09.446Z,10.40
2017-11-08T15:42:36.922Z,10.40
2017-11-08T15:45:04.541Z,10.40
2017-11-08T15:47:37.893Z,10.40
2017-11-08T15:50:06.150Z,10.40
2017-11-08T15:52:34.381Z,10.40
2017-11-08T15:55:01.958Z,10.40
2017-11-08T15:57:30.233Z,10.40
2017-11-08T15:59:58.485Z,10.40
2017-11-08T16:02:28.687Z,10.40
2017-11-08T16:04:56.914Z,10.40
2017-11-08T16:07:24.403Z,10.40
2017-11-08T16:09:51.884Z,10.40
2017-11-08T16:12:19.338Z,10.40
2017-11-08T16:14:46.810Z,10.40
2017-11-08T16:17:15.051Z,10.40
2017-11-08T16:19:42.515Z,10.30
2017-11-08T16:22:10.875Z,10.40
2017-11-08T16:24:39.133Z,10.40
2017-11-08T16:27:07.397Z,10.30
2017-11-08T16:29:35.706Z,10.30
2017-11-08T16:32:05.146Z,10.30
2017-11-08T16:34:33.510Z,10.30
2017-11-08T16:37:01.732Z,10.40
2017-11-08T16:39:30.817Z,10.40
2017-11-08T16:41:58.293Z,10.40
2017-11-08T16:44:26.554Z,10.40
2017-11-08T16:46:54.809Z,10.40
2017-11-08T16:49:23.073Z,10.30
2017-11-08T16:51:51.306Z,10.30
2017-11-08T16:54:18.769Z,10.30
2017-11-08T16:56:47.034Z,10.30
2017-11-08T16:59:15.369Z,10.30
2017-11-08T17:01:42.838Z,10.30
2017-11-08T17:04:11.297Z,10.20
2017-11-08T17:06:39.530Z,10.20
2017-11-08T17:09:06.993Z,10.20
2017-11-08T17:11:34.609Z,10.20
2017-11-08T17:14:02.091Z,10.20
2017-11-08T17:16:30.328Z,10.20
2017-11-08T17:18:57.891Z,10.20
2017-11-08T17:21:26.130Z,10.30
2017-11-08T17:23:53.694Z,10.20
2017-11-08T17:26:21.941Z,10.20
2017-11-08T17:28:49.407Z,10.20
2017-11-08T17:31:17.657Z,10.30
2017-11-08T17:33:46.410Z,10.20
2017-11-08T17:36:13.900Z,10.20
2017-11-08T17:38:41.364Z,10.20
2017-11-08T17:41:08.825Z,10.20
2017-11-08T17:43:36.301Z,10.20
2017-11-08T17:46:04.539Z,10.20
2017-11-08T17:48:32.202Z,10.20
2017-11-08T17:51:00.462Z,10.20
2017-11-08T17:53:28.721Z,10.20
2017-11-08T17:55:56.961Z,10.20
2017-11-08T17:58:24.472Z,10.20
2017-11-08T18:00:51.939Z,10.20
2017-11-08T18:03:19.612Z,10.20
2017-11-08T18:05:47.842Z,10.10
2017-11-08T18:08:15.310Z,10.20
2017-11-08T18:10:43.549Z,10.10
2017-11-08T18:13:11.117Z,10.10
2017-11-08T18:15:39.377Z,10.10
2017-11-08T18:18:07.614Z,10.10
2017-11-08T18:20:35.188Z,10.10
2017-11-08T18:23:02.677Z,10.10
2017-11-08T18:25:30.165Z,10.10
2017-11-08T18:27:58.407Z,10.10
2017-11-08T18:30:25.892Z,10.00
2017-11-08T18:32:53.410Z,10.00
2017-11-08T18:35:21.662Z,10.00
2017-11-08T18:37:49.898Z,10.00
2017-11-08T18:40:17.372Z,10.00
2017-11-08T18:42:45.598Z,10.00
2017-11-08T18:45:13.081Z,10.00
2017-11-08T18:47:41.311Z,10.00
2017-11-08T18:50:08.790Z,10.00
2017-11-08T18:52:36.356Z,10.00
2017-11-08T18:55:03.865Z,10.00
2017-11-08T18:57:32.106Z,10.00
2017-11-08T18:59:59.662Z,10.00
2017-11-08T19:02:27.898Z,10.00
2017-11-08T19:04:55.462Z,10.00
2017-11-08T19:07:23.729Z,10.00
2017-11-08T19:09:52.011Z,10.00
2017-11-08T19:12:19.445Z,10.00
2017-11-08T19:14:46.923Z,10.00
2017-11-08T19:17:14.393Z,10.10
2017-11-08T19:19:41.877Z,10.10
2017-11-08T19:22:09.438Z,10.00
2017-11-08T19:24:36.906Z,10.00
2017-11-08T19:27:04.385Z,10.10
2017-11-08T19:29:32.617Z,10.10
2017-11-08T19:32:00.089Z,10.10
2017-11-08T19:34:28.341Z,10.10
2017-11-08T19:36:56.574Z,10.00
2017-11-08T19:39:24.058Z,10.00
2017-11-08T19:41:51.694Z,10.10
2017-11-08T19:44:19.938Z,10.10
2017-11-08T19:46:48.221Z,10.10
2017-11-08T19:49:16.465Z,10.00
2017-11-08T19:51:44.744Z,10.00
2017-11-08T19:54:12.995Z,10.00
2017-11-08T19:56:41.354Z,9.90
2017-11-08T19:59:09.595Z,10.00
2017-11-08T20:01:37.152Z,10.00
2017-11-08T20:04:05.573Z,9.90
2017-11-08T20:06:33.090Z,9.90
2017-11-08T20:09:00.606Z,10.00
2017-11-08T20:11:28.874Z,10.00
2017-11-08T20:13:57.113Z,10.00
2017-11-08T20:16:26.218Z,9.90
2017-11-08T20:18:54.474Z,9.90
2017-11-08T20:21:22.724Z,9.90
2017-11-08T20:23:50.973Z,9.90
2017-11-08T20:26:18.438Z,9.90
2017-11-08T20:28:46.707Z,9.90
2017-11-08T20:31:14.234Z,9.90
2017-11-08T20:33:42.453Z,9.90
2017-11-08T20:36:09.952Z,9.90
2017-11-08T20:38:37.473Z,9.90
2017-11-08T20:41:05.022Z,9.90
2017-11-08T20:43:33.249Z,9.90
2017-11-08T20:46:00.829Z,9.90
2017-11-08T20:48:29.080Z,9.90
2017-11-08T20:50:57.315Z,10.00
2017-11-08T20:53:24.891Z,10.00
2017-11-08T20:55:53.262Z,10.00
2017-11-08T20:58:20.790Z,10.00
2017-11-08T21:00:49.042Z,10.00
2017-11-08T21:03:17.319Z,10.00
2017-11-08T21:05:44.827Z,10.00
2017-11-08T21:08:12.290Z,10.00
2017-11-08T21:10:40.553Z,10.00
2017-11-08T21:13:08.022Z,10.00
2017-11-08T21:15:35.495Z,10.00
2017-11-08T21:18:03.026Z,10.00
2017-11-08T21:20:30.497Z,10.00
2017-11-08T21:22:57.966Z,10.00
2017-11-08T21:25:26.226Z,10.00
2017-11-08T21:27:54.487Z,10.00
2017-11-08T21:30:22.749Z,10.00
2017-11-08T21:32:50.253Z,10.00
2017-11-08T21:35:18.521Z,10.00
2017-11-08T21:37:46.759Z,10.00
2017-11-08T21:40:14.249Z,10.00
2017-11-08T21:42:41.765Z,10.00
2017-11-08T21:45:09.998Z,10.00
2017-11-08T21:47:37.558Z,10.00
2017-11-08T21:50:05.040Z,10.00
2017-11-08T21:52:32.510Z,10.00
2017-11-08T21:55:00.770Z,10.00
2017-11-08T21:57:29.009Z,10.00
2017-11-08T21:59:57.484Z,10.00
2017-11-08T22:02:25.829Z,10.00
2017-11-08T22:04:53.322Z,10.00
2017-11-08T22:07:21.538Z,10.10
2017-11-08T22:09:49.097Z,10.00
2017-11-08T22:12:17.358Z,10.10
2017-11-08T22:14:45.590Z,10.10
2017-11-08T22:17:13.261Z,10.10
2017-11-08T22:19:41.493Z,10.00
2017-11-08T22:22:08.957Z,10.00
2017-11-08T22:24:37.351Z,10.10
2017-11-08T22:27:04.817Z,10.00
2017-11-08T22:29:32.317Z,10.00
2017-11-08T22:32:00.686Z,10.00
2017-11-08T22:34:33.258Z,10.00
2017-11-08T22:37:00.791Z,10.00
2017-11-08T22:39:29.017Z,10.00
2017-11-08T22:41:56.586Z,10.00
2017-11-08T22:44:24.845Z,10.00
2017-11-08T22:46:53.081Z,10.00
2017-11-08T22:49:20.549Z,10.00
2017-11-08T22:51:48.842Z,10.00
2017-11-08T22:54:16.309Z,10.00
2017-11-08T22:56:43.802Z,10.00
2017-11-08T22:59:12.154Z,10.00
2017-11-08T23:01:40.414Z,10.00
2017-11-08T23:04:08.642Z,10.00
2017-11-08T23:06:36.322Z,9.90
2017-11-08T23:09:04.566Z,9.90
2017-11-08T23:11:33.845Z,10.00
2017-11-08T23:14:01.513Z,10.00
2017-11-08T23:16:29.737Z,9.90
2017-11-08T23:18:57.197Z,9.90
2017-11-08T23:21:26.177Z,9.90
2017-11-08T23:23:53.649Z,9.90
2017-11-08T23:26:21.875Z,9.90
2017-11-08T23:28:49.444Z,9.90
2017-11-08T23:31:17.672Z,9.90
2017-11-08T23:33:45.135Z,9.90
2017-11-08T23:36:13.394Z,10.00
2017-11-08T23:38:41.626Z,9.90
2017-11-08T23:41:09.094Z,9.90
2017-11-08T23:43:36.574Z,9.90
2017-11-08T23:46:04.034Z,9.90
2017-11-08T23:48:31.524Z,9.90
2017-11-08T23:50:59.794Z,9.90
2017-11-08T23:53:28.045Z,9.80
2017-11-08T23:55:56.405Z,9.80
2017-11-08T23:58:24.671Z,9.90
